GW2349 Weather Reports


Display with metric or nautical units.
time (UTC)temp
F
wind
direction
speed
MPH
gust
MPH
rain 1hr
in
rain 24hr
in
rain mn
in
humidity
%
barometer
mb
20260901064043 52 245 5.0 15.0 0.02 0.18 0.17 90 1004.6
20260901063545 52 0 2.0 7.0 0.01 0.17 0.16 90 1004.7
20260901063101 52 312 2.0 11.0 0.02 0.17 0.16 90 1004.6
20260901062542 52 340 2.0 11.0 0.02 0.17 0.16 90 1004.6
20260901062047 52 287 2.0 10.0 0.03 0.17 0.16 90 1004.6
20260901061602 52 302 3.0 9.0 0.03 0.17 0.16 91 1004.6
20260901061044 52 347 1.0 9.0 0.03 0.17 0.16 91 1004.5
20260901060545 52 41 2.0 9.0 0.03 0.17 0.16 91 1004.5
20260901060100 52 360 3.0 12.0 0.03 0.16 0.15 91 1004.5
20260901055543 52 323 3.0 12.0 0.03 0.16 0.15 91 1004.3
20260901055045 52 279 4.0 12.0 0.03 0.16 0.15 91 1004.3
20260901054604 52 273 5.0 12.0 0.03 0.15 0.14 91 1004.3
20260901054043 52 325 5.0 13.0 0.03 0.15 0.14 91 1004.2
20260901053543 52 260 5.0 13.0 0.03 0.15 0.14 91 1004.2
20260901053123 52 321 5.0 13.0 0.03 0.14 0.14 91 1004.2
20260901052543 52 306 4.0 12.0 0.03 0.14 0.14 91 1004.2
20260901052043 52 360 3.0 12.0 0.03 0.14 0.13 91 1004.2
20260901051610 52 321 4.0 12.0 0.03 0.14 0.13 91 1004.2
20260901051043 52 350 3.0 10.0 0.02 0.13 0.12 91 1004.0
20260901050543 52 360 3.0 10.0 0.02 0.13 0.12 91 1004.1
20260901050055 52 279 3.0 12.0 0.02 0.12 0.11 91 1004.0
20260901045544 52 320 3.0 12.0 0.02 0.12 0.11 91 1004.1
20260901045042 52 311 4.0 12.0 0.02 0.12 0.11 91 1004.1
20260901044634 52 292 3.0 11.0 0.01 0.11 0.11 91 1004.0
20260901044043 52 273 4.0 12.0 0.01 0.11 0.11 91 1004.0
20260901043542 52 9 2.0 12.0 0.02 0.11 0.11 91 1004.1
20260901043113 52 321 3.0 12.0 0.01 0.11 0.10 91 1004.1
20260901042542 52 296 3.0 9.0 0.01 0.11 0.10 91 1004.2
20260901042042 52 310 3.0 10.0 0.01 0.11 0.10 91 1004.1
20260901041602 52 0 2.0 10.0 0.02 0.11 0.10 91 1004.1
20260901041045 52 317 3.0 13.0 0.02 0.11 0.10 91 1004.0
20260901040544 52 350 3.0 13.0 0.03 0.11 0.10 91 1004.0
20260901040107 52 325 3.0 13.0 0.02 0.10 0.09 91 1004.0
20260901035543 52 315 4.0 12.0 0.02 0.10 0.09 91 1004.0
20260901035043 52 27 2.0 9.0 0.03 0.10 0.09 91 1003.9
20260901034609 52 327 2.0 9.0 0.03 0.10 0.09 91 1003.9
20260901034042 52 318 4.0 9.0 0.03 0.09 0.08 91 1004.0
20260901033542 52 5 3.0 11.0 0.03 0.09 0.08 90 1004.0
20260901033052 52 309 5.0 11.0 0.03 0.09 0.08 90 1003.9
20260901032544 52 34 4.0 10.0 0.03 0.09 0.08 90 1003.9
20260901032042 52 315 3.0 13.0 0.04 0.09 0.08 90 1003.9
20260901031600 52 345 3.0 13.0 0.03 0.08 0.07 90 1004.0
20260901031044 53 321 5.0 13.0 0.04 0.08 0.07 90 1004.0
20260901030546 53 315 3.0 11.0 0.03 0.07 0.07 90 1004.0
20260901030055 53 335 3.0 11.0 0.03 0.07 0.07 90 1004.0
20260901025544 53 0 1.0 7.0 0.04 0.09 0.07 91 1004.0
20260901025044 53 350 1.0 8.0 0.03 0.08 0.06 91 1004.0
20260901024557 53 26 1.0 8.0 0.03 0.07 0.05 90 1004.0
20260901024042 53 350 2.0 8.0 0.03 0.07 0.05 90 1004.0
20260901023543 53 349 2.0 8.0 0.03 0.07 0.05 90 1003.9
20260901023107 53 277 2.0 8.0 0.03 0.07 0.04 90 1004.0
20260901022543 53 302 2.0 8.0 0.03 0.07 0.04 90 1004.0
20260901022043 53 12 3.0 8.0 0.02 0.06 0.03 90 1004.1
20260901021616 53 279 2.0 7.0 0.03 0.06 0.03 90 1004.1
20260901021047 53 0 1.0 8.0 0.02 0.05 0.03 90 1004.1
20260901020543 53 0 2.0 8.0 0.02 0.05 0.03 90 1004.2
20260901020111 53 0 1.0 4.0 0.02 0.05 0.03 90 1004.1
20260901015543 53 0 0.0 0.0 0.01 0.04 0.02 90 1004.1
20260901015043 53 0 0.0 3.0 0.01 0.04 0.02 90 1004.2
20260901014606 53 0 0.0 3.0 0.01 0.04 0.02 90 1004.1
20260901014042 53 199 1.0 3.0 0.01 0.03 0.01 90 1004.2
20260901013543 53 0 0.0 0.0 0.01 0.03 0.01 90 1004.1
20260901013109 53 0 0.0 0.0 0.01 0.03 0.01 90 1004.1
20260901012545 53 0 0.0 0.0 0.01 0.03 0.01 90 1004.0
20260901012043 53 0 0.0 4.0 0.01 0.03 0.01 90 1004.1
20260901011602 53 0 0.0 6.0 0.00 0.03 0.00 90 1004.0
20260901011043 53 158 1.0 6.0 0.00 0.03 0.00 90 1004.0
20260901010543 53 157 1.0 6.0 0.00 0.03 0.00 90 1004.2
20260901010101 53 154 0.0 4.0 0.00 0.03 0.00 90 1004.2
20260901005543 53 177 1.0 6.0 0.00 0.03 0.00 90 1004.2
20260901005042 53 256 1.0 6.0 0.00 0.03 0.00 90 1004.2
20260901004608 53 0 1.0 5.0 0.00 0.03 0.00 90 1004.3
20260901004042 53 340 1.0 4.0 0.00 0.03 0.00 90 1004.3
20260901003542 53 0 1.0 4.0 0.00 0.03 0.00 90 1004.3
20260901003123 53 0 0.0 4.0 0.00 0.03 0.00 90 1004.4
20260901002542 53 163 0.0 2.0 0.00 0.03 0.00 90 1004.4
20260901002043 53 0 0.0 2.0 0.00 0.03 0.00 90 1004.4
20260901001612 53 0 0.0 2.0 0.00 0.03 0.00 90 1004.5
20260901001043 53 0 0.0 2.0 0.00 0.03 0.00 90 1004.4
20260901000543 53 163 0.0 2.0 0.00 0.03 0.00 91 1004.5
20260901000059 52 0 0.0 2.0 0.00 0.03 0.00 91 1004.5
20260831235543 52 0 0.0 2.0 0.00 0.03 0.00 91 1004.5
20260831235043 52 95 0.0 3.0 0.00 0.03 0.00 91 1004.6
20260831234624 52 0 0.0 3.0 0.00 0.03 0.00 91 1004.6
20260831234043 52 0 0.0 2.0 0.00 0.03 0.00 90 1004.6
20260831233544 52 0 0.0 2.0 0.00 0.03 0.00 90 1004.6
20260831233100 52 0 0.0 3.0 0.00 0.03 0.00 90 1004.6
20260831232542 52 0 0.0 3.0 0.00 0.03 0.00 90 1004.6
20260831232042 51 279 0.0 0.0 0.00 0.03 0.00 90 1004.7
20260831231607 51 0 0.0 0.0 0.00 0.03 0.00 89 1004.7
20260831231045 51 0 0.0 0.0 0.00 0.03 0.00 89 1004.8
20260831230542 51 0 0.0 0.0 0.00 0.03 0.00 89 1004.8
20260831230057 51 0 0.0 0.0 0.00 0.03 0.00 89 1004.9
20260831225543 51 0 0.0 0.0 0.00 0.03 0.00 89 1004.8
20260831225042 51 0 0.0 0.0 0.00 0.03 0.00 89 1004.9
20260831224602 51 0 0.0 0.0 0.00 0.03 0.00 89 1004.9
20260831224045 51 0 0.0 0.0 0.00 0.03 0.00 89 1005.0
20260831223543 51 0 0.0 0.0 0.00 0.03 0.00 89 1005.0
20260831223058 51 0 0.0 0.0 0.00 0.03 0.00 88 1005.0
20260831222541 51 0 0.0 0.0 0.00 0.03 0.00 88 1005.0
20260831222043 51 0 0.0 3.0 0.00 0.03 0.00 88 1005.0
20260831221554 51 0 0.0 3.0 0.00 0.03 0.00 88 1005.0
20260831221042 51 0 1.0 3.0 0.00 0.03 0.00 88 1005.1
20260831220543 51 0 0.0 0.0 0.00 0.03 0.00 87 1005.0
20260831220118 51 0 0.0 0.0 0.00 0.03 0.00 87 1005.2
20260831215544 51 0 0.0 0.0 0.00 0.04 0.03 86 1005.1
20260831215043 51 0 0.0 0.0 0.00 0.04 0.03 86 1005.2
20260831214603 51 0 0.0 0.0 0.00 0.04 0.03 86 1005.2
20260831214043 51 0 0.0 0.0 0.00 0.04 0.03 86 1005.2
20260831213542 51 0 0.0 0.0 0.00 0.04 0.03 86 1005.1
20260831213105 52 0 0.0 0.0 0.00 0.04 0.03 86 1005.2
20260831212545 52 0 0.0 0.0 0.00 0.04 0.03 86 1005.3
20260831212043 52 0 0.0 0.0 0.00 0.04 0.03 86 1005.3
20260831211612 52 0 0.0 0.0 0.00 0.04 0.03 86 1005.3
20260831211042 52 0 0.0 0.0 0.00 0.04 0.03 86 1005.3
20260831210544 52 0 0.0 0.0 0.00 0.04 0.03 86 1005.4
20260831210104 52 0 0.0 0.0 0.00 0.04 0.03 86 1005.4
20260831205543 52 0 0.0 0.0 0.00 0.08 0.03 86 1005.4
20260831205042 53 0 0.0 0.0 0.00 0.08 0.03 86 1005.4
20260831204559 53 0 0.0 0.0 0.00 0.08 0.03 86 1005.4
20260831204043 53 0 0.0 2.0 0.00 0.08 0.03 86 1005.4
20260831203542 53 0 0.0 2.0 0.00 0.08 0.03 86 1005.4
20260831203102 53 0 0.0 2.0 0.00 0.08 0.03 86 1005.3
20260831202542 53 0 0.0 0.0 0.00 0.08 0.03 86 1005.4
20260831202043 53 0 0.0 3.0 0.00 0.08 0.03 86 1005.5
20260831201608 53 0 0.0 3.0 0.00 0.08 0.03 86 1005.4
20260831201046 54 327 0.0 3.0 0.00 0.08 0.03 86 1005.5
20260831200543 54 0 0.0 0.0 0.00 0.08 0.03 86 1005.5
20260831200056 54 0 0.0 0.0 0.00 0.08 0.03 86 1005.4
20260831195544 54 0 0.0 0.0 0.00 0.11 0.03 86 1005.5
20260831195045 54 0 0.0 0.0 0.00 0.11 0.03 86 1005.4
20260831194629 54 0 0.0 2.0 0.00 0.11 0.03 86 1005.5
20260831194044 54 0 0.0 2.0 0.00 0.11 0.03 86 1005.5
20260831193544 54 0 1.0 2.0 0.00 0.11 0.03 86 1005.5
20260831193052 55 318 0.0 3.0 0.00 0.11 0.03 87 1005.5
20260831192544 55 0 0.0 3.0 0.00 0.11 0.03 87 1005.6
20260831192042 55 316 0.0 3.0 0.00 0.11 0.03 87 1005.5
20260831191602 55 0 0.0 2.0 0.00 0.11 0.03 87 1005.6
20260831191045 55 0 0.0 3.0 0.00 0.11 0.03 87 1005.6
20260831190543 55 0 0.0 3.0 0.00 0.11 0.03 87 1005.6
20260831190113 55 0 0.0 3.0 0.00 0.11 0.03 87 1005.6
20260831185543 55 269 0.0 4.0 0.00 0.11 0.03 87 1005.6
20260831185042 55 310 1.0 7.0 0.00 0.11 0.03 87 1005.6
20260831184613 55 318 1.0 7.0 0.00 0.11 0.03 87 1005.6
20260831184042 55 245 1.0 4.0 0.00 0.11 0.03 86 1005.6
20260831183542 55 225 1.0 4.0 0.00 0.11 0.03 86 1005.6
20260831183108 56 0 1.0 4.0 0.00 0.11 0.03 86 1005.7
20260831182542 56 0 0.0 6.0 0.00 0.11 0.03 86 1005.8
20260831182042 56 360 1.0 6.0 0.00 0.11 0.03 86 1005.7
20260831181559 56 0 2.0 6.0 0.00 0.11 0.03 86 1005.7
20260831181045 56 347 2.0 5.0 0.00 0.11 0.03 86 1005.7
20260831180542 56 0 2.0 8.0 0.00 0.11 0.03 86 1005.8
20260831180054 56 11 2.0 8.0 0.00 0.11 0.03 86 1005.8
20260831175546 56 342 3.0 8.0 0.00 0.11 0.03 86 1005.7
20260831175044 56 334 2.0 7.0 0.00 0.11 0.03 85 1005.6
20260831174612 56 309 2.0 7.0 0.00 0.11 0.03 85 1005.6
20260831174044 56 318 1.0 7.0 0.00 0.11 0.03 85 1005.6
20260831173543 56 352 2.0 7.0 0.00 0.11 0.03 85 1005.6
20260831173107 56 340 2.0 8.0 0.00 0.11 0.03 85 1005.6
20260831172543 56 296 2.0 8.0 0.00 0.11 0.03 85 1005.6
20260831172042 56 299 2.0 8.0 0.00 0.11 0.03 85 1005.5
20260831171555 56 280 2.0 8.0 0.00 0.11 0.03 85 1005.5
20260831171042 56 286 1.0 8.0 0.00 0.11 0.03 85 1005.6
20260831170544 56 323 1.0 6.0 0.00 0.11 0.03 85 1005.5
20260831170106 56 305 2.0 6.0 0.00 0.11 0.03 84 1005.6
20260831165542 56 203 1.0 8.0 0.00 0.11 0.03 84 1005.6
20260831165042 56 11 3.0 8.0 0.00 0.11 0.03 84 1005.7
20260831164606 57 319 2.0 8.0 0.00 0.11 0.03 84 1005.6
20260831164042 57 300 2.0 10.0 0.00 0.11 0.03 84 1005.7
20260831163542 57 352 2.0 10.0 0.00 0.11 0.03 84 1005.6
20260831163055 57 329 2.0 9.0 0.00 0.11 0.03 84 1005.6
20260831162544 57 28 2.0 11.0 0.00 0.11 0.03 83 1005.6
20260831162043 57 315 2.0 11.0 0.00 0.11 0.03 83 1005.7
20260831161607 57 325 3.0 10.0 0.00 0.11 0.03 83 1005.6
20260831161042 57 229 3.0 9.0 0.00 0.11 0.03 83 1005.6
20260831160542 57 204 2.0 9.0 0.00 0.11 0.03 83 1005.6
20260831155542 57 208 2.0 9.0 0.00 0.11 0.03 83 1005.6
20260831155045 58 286 2.0 7.0 0.00 0.11 0.03 83 1005.6
20260831154631 58 302 2.0 9.0 0.00 0.11 0.03 83 1005.6
20260831154045 58 297 1.0 9.0 0.00 0.11 0.03 83 1005.6
20260831153542 58 352 3.0 9.0 0.00 0.11 0.03 83 1005.7
20260831153104 58 301 3.0 10.0 0.00 0.11 0.03 83 1005.7
20260831152542 58 336 3.0 10.0 0.00 0.11 0.03 83 1005.7
20260831152042 58 332 2.0 12.0 0.00 0.11 0.03 83 1005.7
20260831151607 58 280 2.0 12.0 0.00 0.11 0.03 83 1005.7
20260831151042 58 296 2.0 12.0 0.00 0.11 0.03 83 1005.7
20260831150544 58 325 2.0 9.0 0.00 0.11 0.03 83 1005.7
20260831150058 58 225 2.0 10.0 0.00 0.11 0.03 83 1005.7
20260831145543 58 329 4.0 10.0 0.00 0.11 0.03 82 1005.7
20260831145046 58 270 3.0 9.0 0.00 0.11 0.03 82 1005.8
20260831144609 58 292 3.0 11.0 0.00 0.11 0.03 82 1005.9
20260831144042 58 300 3.0 11.0 0.00 0.11 0.03 82 1005.8
20260831143543 58 352 4.0 9.0 0.00 0.11 0.03 82 1005.8
20260831143104 58 0 4.0 9.0 0.00 0.11 0.03 82 1005.8
20260831142544 58 288 4.0 10.0 0.00 0.11 0.03 82 1005.8
20260831142044 58 273 3.0 10.0 0.00 0.11 0.03 82 1005.8
20260831141605 58 279 3.0 10.0 0.00 0.11 0.03 82 1005.8
20260831141042 58 301 2.0 8.0 0.00 0.11 0.03 82 1005.8
20260831140546 58 352 3.0 8.0 0.00 0.11 0.03 82 1005.9
20260831140057 58 297 2.0 8.0 0.00 0.11 0.03 82 1005.8
20260831135618 58 15 1.0 8.0 0.00 0.11 0.03 82 1005.8
20260831135042 58 40 3.0 9.0 0.00 0.11 0.03 82 1005.9
20260831134600 58 325 2.0 9.0 0.00 0.11 0.03 83 1005.8
20260831134042 58 0 2.0 9.0 0.00 0.11 0.03 83 1005.9
20260831133545 58 320 2.0 10.0 0.00 0.11 0.03 82 1005.9
20260831133107 58 221 4.0 10.0 0.00 0.11 0.03 83 1005.9
20260831132542 58 304 3.0 10.0 0.00 0.11 0.03 83 1005.9
20260831132042 58 295 5.0 10.0 0.00 0.11 0.03 83 1005.9
20260831131603 58 329 2.0 8.0 0.00 0.11 0.03 84 1005.8
20260831131042 58 352 2.0 8.0 0.00 0.11 0.03 85 1005.8
20260831130542 58 309 1.0 8.0 0.00 0.11 0.03 85 1005.9
20260831130110 58 336 1.0 9.0 0.00 0.11 0.03 85 1005.9
20260831125546 58 308 2.0 9.0 0.00 0.16 0.03 85 1005.8
20260831125043 58 273 3.0 9.0 0.00 0.16 0.03 85 1005.8
20260831124604 58 315 2.0 9.0 0.00 0.16 0.03 85 1005.8
20260831124041 58 340 3.0 9.0 0.00 0.16 0.03 85 1005.8
20260831123544 58 305 3.0 8.0 0.00 0.16 0.03 85 1005.8
20260831123054 58 278 2.0 8.0 0.00 0.16 0.03 85 1005.8
20260831122542 58 326 3.0 7.0 0.00 0.16 0.03 85 1005.8
20260831122042 58 311 2.0 8.0 0.00 0.16 0.03 85 1005.8
20260831121601 58 296 2.0 8.0 0.00 0.16 0.03 85 1005.8
20260831121042 58 294 2.0 8.0 0.00 0.16 0.03 85 1005.9
20260831120542 58 290 3.0 8.0 0.00 0.16 0.03 85 1005.9
20260831120057 58 337 3.0 8.0 0.00 0.16 0.03 84 1005.8
20260831115542 58 242 3.0 8.0 0.00 0.19 0.03 85 1005.9
20260831115041 58 257 1.0 8.0 0.00 0.19 0.03 85 1005.9
20260831114557 58 5 2.0 8.0 0.00 0.19 0.03 84 1005.9
20260831114044 58 308 3.0 11.0 0.00 0.19 0.03 84 1005.9
20260831113541 59 269 3.0 11.0 0.00 0.19 0.03 84 1005.9
20260831113107 58 328 3.0 11.0 0.00 0.19 0.03 85 1005.9
20260831112541 58 306 2.0 7.0 0.00 0.19 0.03 86 1005.8
20260831112042 58 265 2.0 7.0 0.00 0.19 0.03 87 1005.8
20260831111612 58 9 2.0 6.0 0.00 0.19 0.03 87 1005.8
20260831111041 58 299 1.0 6.0 0.00 0.19 0.03 87 1005.7
20260831110544 58 350 1.0 9.0 0.00 0.19 0.03 88 1005.7
20260831110134 58 278 2.0 9.0 0.00 0.19 0.03 88 1005.7
20260831105542 57 337 2.0 5.0 0.00 0.19 0.03 88 1005.7
20260831105044 57 310 1.0 10.0 0.00 0.19 0.03 88 1005.6
20260831104600 57 284 3.0 10.0 0.00 0.19 0.03 88 1005.6
20260831104046 57 5 1.0 8.0 0.00 0.19 0.03 88 1005.6
20260831103546 57 282 2.0 8.0 0.00 0.19 0.03 88 1005.6
20260831103101 57 267 3.0 8.0 0.00 0.19 0.03 88 1005.5
20260831102544 57 309 3.0 8.0 0.00 0.19 0.03 88 1005.6
20260831102049 57 5 2.0 6.0 0.00 0.19 0.03 89 1005.6
20260831101555 57 37 1.0 6.0 0.00 0.19 0.03 89 1005.7
20260831101044 57 312 1.0 4.0 0.00 0.19 0.03 89 1005.7
20260831100544 57 349 0.0 6.0 0.00 0.19 0.03 89 1005.6
20260831100104 56 329 2.0 6.0 0.00 0.19 0.03 89 1005.7
20260831095543 56 277 1.0 6.0 0.00 0.19 0.03 89 1005.6
20260831095043 56 321 1.0 6.0 0.00 0.19 0.03 89 1005.7
20260831094602 56 0 2.0 6.0 0.00 0.19 0.03 89 1005.6
20260831094047 56 352 1.0 5.0 0.00 0.19 0.03 89 1005.5
20260831093544 56 282 0.0 4.0 0.00 0.19 0.03 89 1005.5
20260831093103 56 352 0.0 5.0 0.00 0.19 0.03 89 1005.6
20260831092544 56 0 1.0 5.0 0.00 0.19 0.03 88 1005.6
20260831092045 56 347 0.0 5.0 0.00 0.19 0.03 89 1005.5
20260831091557 56 81 1.0 5.0 0.00 0.19 0.03 89 1005.5
20260831091044 56 284 1.0 3.0 0.00 0.19 0.03 89 1005.5
20260831090547 56 250 0.0 3.0 0.00 0.19 0.03 89 1005.5
20260831090054 56 0 0.0 3.0 0.00 0.19 0.03 89 1005.5
20260831085545 56 343 0.0 3.0 0.00 0.19 0.03 90 1005.6
20260831085045 56 0 1.0 3.0 0.00 0.19 0.03 90 1005.5
20260831084604 56 223 0.0 3.0 0.00 0.19 0.03 90 1005.5
20260831084046 56 0 0.0 3.0 0.00 0.19 0.03 90 1005.4
20260831083544 56 345 0.0 3.0 0.00 0.19 0.03 90 1005.5
20260831083105 56 5 0.0 3.0 0.00 0.19 0.03 90 1005.4
20260831082544 56 351 0.0 4.0 0.00 0.19 0.03 90 1005.3
20260831082046 56 0 0.0 4.0 0.00 0.19 0.03 90 1005.3
20260831081632 56 0 0.0 4.0 0.00 0.19 0.03 90 1005.3
20260831081045 55 360 1.0 4.0 0.00 0.19 0.03 90 1005.3
20260831080544 55 0 0.0 4.0 0.00 0.19 0.03 90 1005.4
20260831075545 55 0 1.0 4.0 0.00 0.22 0.03 90 1005.3
20260831075044 55 317 0.0 3.0 0.00 0.22 0.03 90 1005.2
20260831074602 55 317 1.0 3.0 0.00 0.22 0.03 90 1005.3
20260831074044 55 316 0.0 4.0 0.00 0.22 0.03 90 1005.2
20260831073542 55 352 1.0 4.0 0.00 0.22 0.03 90 1005.2
20260831073156 55 344 0.0 3.0 0.00 0.21 0.03 91 1005.1
20260831072541 55 0 0.0 0.0 0.00 0.21 0.03 91 1005.2
20260831072047 55 0 0.0 0.0 0.00 0.21 0.03 90 1005.1
20260831071553 55 0 0.0 0.0 0.00 0.21 0.03 90 1005.2
20260831071041 55 0 0.0 1.0 0.00 0.21 0.03 90 1005.1
20260831070545 55 0 0.0 1.0 0.00 0.21 0.03 90 1005.1
20260831070107 55 0 0.0 2.0 0.00 0.21 0.03 90 1005.2
20260831065542 55 0 0.0 4.0 0.00 0.21 0.03 90 1005.1
20260831065041 55 352 0.0 4.0 0.00 0.21 0.03 90 1005.1
20260831064607 55 5 1.0 4.0 0.00 0.21 0.03 91 1005.1